Time;durP1;ratioP1;P1;durP2;ratioP2;P2;SDS_P1;SDS_P2;PMS_P1;PMS_P2;Temp;Humidity;BMP_temperature;BMP_pressure;BME280_temperature;BME280_humidity;BME280_pressure;Samples;Min_cycle;Max_cycle;Signal;HPM_P1;HPM_P2
2022/07/24 00:00:24;;;;;;;7.40;3.75;;;;;;;21.64;56.40;94729.56;5057256;28;20215;-77
2022/07/24 00:02:51;;;;;;;9.30;4.05;;;;;;;21.66;56.19;94721.69;5056505;28;20261;-77
2022/07/24 00:05:18;;;;;;;9.13;5.15;;;;;;;21.75;56.12;94727.56;5062518;28;20271;-77
2022/07/24 00:07:45;;;;;;;8.25;4.55;;;;;;;21.71;56.81;94729.56;5062821;28;20202;-77
2022/07/24 00:10:12;;;;;;;9.65;4.43;;;;;;;21.63;56.98;94723.25;5057979;28;20206;-77
2022/07/24 00:12:39;;;;;;;7.38;4.35;;;;;;;21.56;57.37;94723.28;5056700;28;20365;-77
2022/07/24 00:15:09;;;;;;;7.25;4.03;;;;;;;21.56;57.99;94726.03;5061657;28;20264;-77
2022/07/24 00:17:35;;;;;;;8.43;4.53;;;;;;;21.45;58.31;94722.50;5063328;28;20629;-77
2022/07/24 00:20:03;;;;;;;6.15;3.65;;;;;;;21.37;57.43;94725.63;5059335;28;20207;-77
2022/07/24 00:22:30;;;;;;;8.23;4.90;;;;;;;21.26;58.37;94731.16;5056821;28;20214;-77
2022/07/24 00:24:56;;;;;;;14.38;3.80;;;;;;;21.18;57.83;94718.53;5060309;28;20215;-75
2022/07/24 00:27:23;;;;;;;8.32;3.40;;;;;;;21.19;57.61;94725.63;5062249;28;20232;-76
2022/07/24 00:29:50;;;;;;;7.38;3.67;;;;;;;21.18;57.01;94727.56;5059583;28;20226;-77
2022/07/24 00:32:19;;;;;;;11.75;3.75;;;;;;;21.14;58.28;94729.56;5056212;28;20195;-76
2022/07/24 00:34:45;;;;;;;10.15;4.55;;;;;;;21.13;57.47;94730.72;5059241;28;20231;-76
2022/07/24 00:37:12;;;;;;;8.27;3.70;;;;;;;21.09;58.11;94729.94;5066849;28;20199;-76
2022/07/24 00:39:39;;;;;;;5.93;3.78;;;;;;;21.05;57.55;94728.34;5069161;28;20220;-76
2022/07/24 00:42:06;;;;;;;8.00;4.28;;;;;;;21.05;57.00;94720.88;5056253;28;20218;-76
2022/07/24 00:44:33;;;;;;;10.63;3.83;;;;;;;21.17;57.99;94726.03;5050370;28;20207;-76
2022/07/24 00:47:00;;;;;;;16.05;6.35;;;;;;;21.13;57.98;94722.47;5054330;28;20234;-76
2022/07/24 00:49:29;;;;;;;10.73;5.22;;;;;;;21.14;57.79;94724.03;5058337;28;20199;-76
2022/07/24 00:51:57;;;;;;;8.68;4.57;;;;;;;21.06;57.70;94714.19;5062805;28;20686;-76
2022/07/24 00:54:24;;;;;;;9.73;4.07;;;;;;;20.98;57.72;94715.38;5049282;28;20269;-77
2022/07/24 00:56:54;;;;;;;8.15;3.60;;;;;;;21.00;57.57;94712.22;5068627;28;20195;-76
2022/07/24 00:59:22;;;;;;;13.82;4.10;;;;;;;20.88;57.59;94716.16;5057062;28;20231;-76
2022/07/24 01:01:49;;;;;;;8.20;3.97;;;;;;;20.58;58.48;94724.72;5063171;28;20203;-76
2022/07/24 01:04:16;;;;;;;5.82;3.92;;;;;;;20.67;58.46;94732.59;5062552;28;20248;-76
2022/07/24 01:06:46;;;;;;;7.65;4.28;;;;;;;20.55;60.04;94720.78;5056354;28;20641;-76
2022/07/24 01:09:13;;;;;;;6.18;3.55;;;;;;;20.46;60.12;94714.06;5055695;28;20281;-76
2022/07/24 01:11:40;;;;;;;10.30;3.67;;;;;;;20.53;60.10;94723.13;5065534;28;20207;-76
2022/07/24 01:14:09;;;;;;;10.98;4.20;;;;;;;20.62;59.73;94722.00;5066595;28;20226;-76
2022/07/24 01:16:36;;;;;;;8.80;4.72;;;;;;;20.66;59.55;94715.28;5060676;28;20245;-76
2022/07/24 01:19:03;;;;;;;7.85;4.20;;;;;;;20.60;60.04;94727.88;5071620;28;20724;-75
2022/07/24 01:21:32;;;;;;;8.25;4.00;;;;;;;20.51;59.77;94719.97;5061204;28;20276;-75
2022/07/24 01:23:59;;;;;;;10.27;4.80;;;;;;;20.53;59.30;94725.09;5058848;28;20226;-75
2022/07/24 01:26:25;;;;;;;9.95;3.95;;;;;;;20.46;60.46;94717.63;5064244;28;20322;-75
2022/07/24 01:28:53;;;;;;;6.82;4.53;;;;;;;20.43;59.81;94715.63;5065814;28;20203;-75
2022/07/24 01:31:20;;;;;;;8.98;4.38;;;;;;;20.42;59.89;94714.06;5061180;28;20707;-75
2022/07/24 01:33:47;;;;;;;5.80;3.88;;;;;;;20.43;60.44;94712.88;5059493;28;20314;-75
2022/07/24 01:36:14;;;;;;;13.25;4.43;;;;;;;20.44;60.17;94710.91;5063659;28;20204;-75
2022/07/24 01:38:42;;;;;;;7.53;3.83;;;;;;;20.43;60.51;94712.09;5068495;28;20628;-77
2022/07/24 01:41:09;;;;;;;9.60;4.40;;;;;;;20.45;60.04;94704.25;5062491;28;20207;-75
2022/07/24 01:43:36;;;;;;;7.05;3.80;;;;;;;20.50;59.99;94710.13;5060050;28;20198;-76
2022/07/24 01:46:03;;;;;;;7.68;3.65;;;;;;;20.44;59.83;94703.44;5072355;28;20253;-75
2022/07/24 01:48:30;;;;;;;6.80;3.80;;;;;;;20.38;60.03;94704.19;5058563;28;20768;-75
2022/07/24 01:50:57;;;;;;;11.00;3.70;;;;;;;20.44;59.31;94703.44;5061876;28;20728;-76
2022/07/24 01:53:24;;;;;;;12.00;3.97;;;;;;;20.44;60.07;94689.69;5065633;28;20204;-75
2022/07/24 01:55:53;;;;;;;11.63;4.03;;;;;;;20.29;60.16;94688.03;5062378;28;20199;-76
2022/07/24 01:58:20;;;;;;;8.73;3.70;;;;;;;20.33;59.14;94690.81;5058759;28;20682;-75
2022/07/24 02:00:47;;;;;;;8.55;3.92;;;;;;;20.26;59.43;94691.56;5059968;28;20265;-75
2022/07/24 02:03:14;;;;;;;7.80;3.10;;;;;;;20.26;59.29;94691.56;5064967;28;20204;-75
2022/07/24 02:05:41;;;;;;;5.82;3.40;;;;;;;19.86;59.67;94696.09;5063299;28;20244;-75
2022/07/24 02:08:08;;;;;;;6.07;3.70;;;;;;;19.60;60.96;94701.84;5058292;28;20294;-75
2022/07/24 02:10:35;;;;;;;9.23;3.33;;;;;;;19.47;60.69;94700.53;5059622;28;20215;-75
2022/07/24 02:13:04;;;;;;;8.75;4.25;;;;;;;19.51;61.54;94695.91;5064688;28;20677;-75
2022/07/24 02:15:31;;;;;;;10.05;4.03;;;;;;;19.46;63.78;94696.22;5063978;28;20227;-75
2022/07/24 02:18:00;;;;;;;7.75;3.80;;;;;;;19.48;63.48;94693.88;5058244;28;20199;-75
2022/07/24 02:20:27;;;;;;;7.57;3.80;;;;;;;19.50;63.25;94702.56;5058619;28;20207;-76
2022/07/24 02:22:54;;;;;;;10.13;4.10;;;;;;;19.61;63.75;94697.91;5064541;28;20261;-76
2022/07/24 02:25:22;;;;;;;7.38;3.72;;;;;;;19.65;63.26;94698.75;5064520;28;20251;-75
2022/07/24 02:27:49;;;;;;;10.50;3.50;;;;;;;19.68;62.41;94694.44;5058560;28;20324;-75
2022/07/24 02:30:19;;;;;;;14.82;3.90;;;;;;;19.81;61.69;94693.72;5058365;28;20265;-76
2022/07/24 02:32:46;;;;;;;7.38;3.90;;;;;;;19.89;61.51;94694.53;5058131;28;20265;-75
2022/07/24 02:35:14;;;;;;;6.30;4.15;;;;;;;19.88;61.11;94692.97;5057789;28;20235;-75
2022/07/24 02:37:43;;;;;;;8.07;3.70;;;;;;;19.93;60.56;94700.06;5071394;28;20219;-75
2022/07/24 02:40:12;;;;;;;8.13;4.70;;;;;;;19.84;61.46;94703.16;5069639;28;20249;-75
2022/07/24 02:42:39;;;;;;;7.00;3.80;;;;;;;19.88;61.32;94713.00;5055971;28;20200;-75
2022/07/24 02:45:07;;;;;;;6.90;3.72;;;;;;;19.81;62.05;94709.44;5066698;28;20199;-75
2022/07/24 02:47:36;;;;;;;9.65;4.25;;;;;;;19.77;61.59;94720.41;5062183;28;20203;-75
2022/07/24 02:50:03;;;;;;;5.65;3.70;;;;;;;19.85;60.85;94705.53;5064655;28;20208;-75
2022/07/24 02:52:30;;;;;;;6.05;3.80;;;;;;;19.86;61.91;94709.84;5061109;28;20734;-75
2022/07/24 02:54:57;;;;;;;6.90;4.05;;;;;;;19.52;63.67;94708.47;5057504;28;20764;-75
2022/07/24 02:57:24;;;;;;;8.68;3.50;;;;;;;19.38;63.32;94697.34;5060335;28;20674;-74
2022/07/24 02:59:52;;;;;;;7.93;3.88;;;;;;;19.36;62.92;94705.19;5050888;28;20729;-75
2022/07/24 03:02:19;;;;;;;6.25;4.10;;;;;;;19.28;63.88;94715.31;5061035;28;20252;-75
2022/07/24 03:04:47;;;;;;;12.35;5.15;;;;;;;19.42;62.91;94709.13;5053146;28;20242;-75
2022/07/24 03:07:14;;;;;;;8.35;4.10;;;;;;;19.54;62.37;94711.63;5061891;28;20614;-75
2022/07/24 03:09:41;;;;;;;12.05;4.57;;;;;;;19.61;61.83;94706.16;5057081;28;20651;-75
2022/07/24 03:12:08;;;;;;;11.10;4.20;;;;;;;19.71;61.08;94694.44;5058769;28;20729;-75
2022/07/24 03:14:37;;;;;;;10.15;4.35;;;;;;;19.75;61.50;94705.47;5063993;28;20231;-75
2022/07/24 03:17:05;;;;;;;11.02;4.20;;;;;;;19.78;61.19;94693.72;5062685;28;20291;-75
2022/07/24 03:19:31;;;;;;;9.45;3.90;;;;;;;19.84;61.34;94698.44;5057137;28;20256;-75
2022/07/24 03:22:00;;;;;;;10.55;4.03;;;;;;;19.85;61.15;94700.03;5058271;28;20558;-75
2022/07/24 03:24:27;;;;;;;9.68;5.00;;;;;;;19.75;62.09;94700.75;5056479;28;20214;-75
2022/07/24 03:26:54;;;;;;;5.88;3.72;;;;;;;19.90;61.17;94704.38;5070248;28;20227;-75
2022/07/24 03:29:21;;;;;;;8.73;4.13;;;;;;;20.12;60.75;94713.50;5056503;28;20698;-75
2022/07/24 03:31:48;;;;;;;15.57;4.10;;;;;;;20.32;60.22;94706.53;5057726;28;20203;-75
2022/07/24 03:34:15;;;;;;;12.35;3.85;;;;;;;20.63;59.59;94699.59;5062330;28;20227;-75
2022/07/24 03:36:41;;;;;;;6.03;4.05;;;;;;;21.01;58.42;94702.78;5050180;28;20655;-76
2022/07/24 03:39:10;;;;;;;9.23;4.40;;;;;;;21.30;57.91;94706.38;5056558;28;20754;-76
2022/07/24 03:41:37;;;;;;;7.68;3.65;;;;;;;21.52;57.66;94688.63;5056927;28;20208;-75
2022/07/24 03:44:04;;;;;;;11.30;5.53;;;;;;;21.88;56.73;94701.16;5062817;28;20253;-75
2022/07/24 03:46:31;;;;;;;10.98;4.15;;;;;;;21.95;56.45;94698.38;5063810;28;20685;-74
2022/07/24 03:48:58;;;;;;;9.18;3.88;;;;;;;21.55;57.56;94710.69;5049668;28;20219;-75
2022/07/24 03:51:25;;;;;;;7.03;3.70;;;;;;;21.68;56.76;94705.53;5063310;28;20624;-75
2022/07/24 03:53:52;;;;;;;9.30;4.07;;;;;;;21.95;56.17;94695.63;5057379;28;20727;-75
2022/07/24 03:56:21;;;;;;;8.98;5.05;;;;;;;22.26;54.87;94695.94;5056708;28;20203;-75
2022/07/24 03:58:48;;;;;;;8.80;4.00;;;;;;;22.86;52.79;94694.88;5061826;28;20743;-75
2022/07/24 04:01:14;;;;;;;15.40;4.93;;;;;;;23.51;51.63;94694.00;5063300;28;20612;-75
2022/07/24 04:03:41;;;;;;;10.55;4.32;;;;;;;24.14;49.56;94680.72;5058088;28;20199;-75
2022/07/24 04:06:08;;;;;;;6.65;4.20;;;;;;;24.55;49.57;94677.84;5056291;28;20199;-75
2022/07/24 04:08:35;;;;;;;10.48;4.50;;;;;;;25.31;47.37;94673.59;5062141;28;20625;-76
2022/07/24 04:11:01;;;;;;;6.25;4.05;;;;;;;25.58;47.03;94679.06;5063388;28;20203;-76
2022/07/24 04:13:31;;;;;;;6.32;4.35;;;;;;;25.88;46.29;94678.19;5057289;28;20684;-75
2022/07/24 04:15:58;;;;;;;5.70;3.53;;;;;;;25.60;46.90;94684.19;5056225;28;20239;-76
2022/07/24 04:18:26;;;;;;;8.55;4.97;;;;;;;25.31;47.63;94690.22;5060636;28;20616;-76
2022/07/24 04:20:53;;;;;;;5.93;3.92;;;;;;;25.66;47.45;94694.44;5051940;28;20207;-76
2022/07/24 04:23:20;;;;;;;9.57;6.25;;;;;;;26.49;46.00;94684.16;5060978;28;20693;-75
2022/07/24 04:25:47;;;;;;;10.38;6.05;;;;;;;27.08;44.65;94679.69;5062697;28;20313;-76
2022/07/24 04:28:14;;;;;;;9.30;6.18;;;;;;;27.89;43.13;94688.06;5058680;28;20718;-76
2022/07/24 04:30:42;;;;;;;13.88;6.38;;;;;;;27.92;43.58;94687.19;5054144;28;20289;-76
2022/07/24 04:33:09;;;;;;;13.20;6.03;;;;;;;28.44;42.99;94689.78;5058939;28;20252;-76
2022/07/24 04:35:36;;;;;;;12.88;5.88;;;;;;;28.90;41.52;94682.88;5056144;28;20227;-76
2022/07/24 04:38:03;;;;;;;9.93;6.10;;;;;;;29.33;40.17;94675.97;5069853;28;20608;-76
2022/07/24 04:40:30;;;;;;;12.20;6.50;;;;;;;29.43;39.59;94680.44;5056428;28;20207;-76
2022/07/24 04:42:57;;;;;;;10.38;6.22;;;;;;;30.01;38.63;94680.91;5057956;28;20216;-76
2022/07/24 04:45:24;;;;;;;9.00;6.28;;;;;;;30.21;37.64;94677.03;5069281;28;20199;-76
2022/07/24 04:47:52;;;;;;;9.13;6.65;;;;;;;30.31;38.27;94682.25;5062401;28;20253;-77
2022/07/24 04:50:19;;;;;;;10.35;5.75;;;;;;;30.49;37.40;94692.00;5066571;28;20257;-77
2022/07/24 04:52:46;;;;;;;11.15;6.70;;;;;;;30.26;38.30;94685.63;5065215;28;20207;-77
2022/07/24 04:55:13;;;;;;;14.32;6.80;;;;;;;30.29;37.08;94690.31;5059973;28;20227;-75
2022/07/24 04:57:41;;;;;;;9.90;6.25;;;;;;;31.15;36.06;94687.19;5061328;28;20666;-77
2022/07/24 05:00:11;;;;;;;11.40;6.50;;;;;;;31.62;34.38;94682.06;5067217;28;20208;-77
2022/07/24 05:02:38;;;;;;;13.00;7.82;;;;;;;31.60;34.55;94684.53;5065277;28;20238;-75
2022/07/24 05:05:07;;;;;;;12.45;7.20;;;;;;;31.47;34.58;94688.69;5059427;28;20206;-76
2022/07/24 05:07:34;;;;;;;15.27;6.50;;;;;;;32.60;32.79;94688.75;5059306;28;20269;-75
2022/07/24 05:10:01;;;;;;;10.40;6.65;;;;;;;34.05;30.85;94684.66;5073085;28;20206;-77
2022/07/24 05:12:28;;;;;;;11.80;7.10;;;;;;;34.17;30.85;94691.28;5059703;28;20222;-76
2022/07/24 05:14:58;;;;;;;8.63;7.05;;;;;;;34.38;31.01;94689.47;5052389;28;20839;-77
2022/07/24 05:17:25;;;;;;;11.63;7.30;;;;;;;34.47;31.08;94692.19;5053127;28;20784;-77
2022/07/24 05:19:53;;;;;;;13.32;7.65;;;;;;;34.26;30.46;94699.69;5052878;28;20211;-78
2022/07/24 05:22:22;;;;;;;12.38;6.47;;;;;;;33.29;31.53;94702.06;5053284;28;20203;-77
2022/07/24 05:24:49;;;;;;;10.95;6.68;;;;;;;34.19;30.78;94695.19;5053481;28;20207;-77
2022/07/24 05:27:15;;;;;;;11.43;7.07;;;;;;;34.54;30.51;94698.22;5052855;28;20637;-77
2022/07/24 05:29:42;;;;;;;13.38;7.25;;;;;;;34.36;30.27;94701.19;5052898;28;20288;-78
2022/07/24 05:32:09;;;;;;;12.50;7.35;;;;;;;34.54;30.04;94697.47;5052895;28;20699;-77
2022/07/24 05:34:36;;;;;;;9.93;7.18;;;;;;;34.37;30.39;94693.53;5052947;28;20281;-77
2022/07/24 05:37:03;;;;;;;11.07;7.13;;;;;;;34.69;29.74;94697.47;5055434;28;20932;-77
2022/07/24 05:39:31;;;;;;;10.77;7.03;;;;;;;35.36;29.01;94698.72;5063004;28;20749;-76
2022/07/24 05:41:58;;;;;;;13.77;7.50;;;;;;;35.31;28.99;94696.56;5065919;28;20211;-77
2022/07/24 05:44:25;;;;;;;11.07;7.28;;;;;;;36.26;28.37;94695.97;5062396;28;20203;-77
2022/07/24 05:46:52;;;;;;;9.20;7.07;;;;;;;36.10;28.30;94693.66;5068921;28;20243;-77
2022/07/24 05:49:19;;;;;;;11.77;7.70;;;;;;;37.00;26.58;94690.66;5052562;28;20265;-76
2022/07/24 05:51:45;;;;;;;10.32;7.03;;;;;;;37.21;26.41;94691.38;5069254;28;20678;-77
2022/07/24 05:54:12;;;;;;;13.23;6.75;;;;;;;36.81;27.03;94683.78;5072622;28;20199;-76
2022/07/24 05:56:41;;;;;;;11.18;7.15;;;;;;;37.55;25.17;94690.41;5066761;28;20231;-76
2022/07/24 05:59:08;;;;;;;10.55;6.75;;;;;;;37.36;26.50;94689.22;5063217;28;20771;-77
2022/07/24 06:01:34;;;;;;;9.88;6.57;;;;;;;38.05;24.58;94681.47;5058821;28;20214;-78
2022/07/24 06:04:01;;;;;;;8.95;6.45;;;;;;;37.75;25.47;94680.25;5060619;28;20292;-79
2022/07/24 06:06:28;;;;;;;8.15;6.43;;;;;;;38.34;24.10;94680.34;5065788;28;20261;-78
2022/07/24 06:08:55;;;;;;;11.00;6.75;;;;;;;38.57;24.34;94681.25;5063626;28;20203;-78
2022/07/24 06:11:22;;;;;;;9.88;6.70;;;;;;;38.86;23.38;94672.31;5067166;28;20204;-77
2022/07/24 06:13:51;;;;;;;8.00;6.45;;;;;;;39.13;22.56;94670.81;5063407;28;20203;-76
2022/07/24 06:16:18;;;;;;;10.60;6.50;;;;;;;38.86;23.50;94686.47;5058134;28;20230;-77
2022/07/24 06:18:44;;;;;;;10.85;6.30;;;;;;;37.67;24.91;94694.09;5059791;28;20204;-76
2022/07/24 06:21:11;;;;;;;15.30;6.50;;;;;;;37.49;25.33;94694.44;5065345;28;20561;-77
2022/07/24 06:23:38;;;;;;;11.40;6.30;;;;;;;37.24;25.47;94687.56;5051506;28;20271;-77
2022/07/24 06:26:05;;;;;;;9.50;7.57;;;;;;;37.40;24.31;94688.97;5064854;28;20289;-76
2022/07/24 06:28:32;;;;;;;10.73;7.82;;;;;;;37.45;24.25;94686.19;5063443;28;20624;-77
2022/07/24 06:31:00;;;;;;;12.95;6.53;;;;;;;37.76;24.59;94676.94;5058627;28;20199;-77
2022/07/24 06:33:30;;;;;;;10.23;6.55;;;;;;;38.22;24.66;94668.22;5059456;28;20207;-75
2022/07/24 06:35:57;;;;;;;11.30;7.05;;;;;;;38.12;24.52;94675.38;5070845;28;20300;-77
2022/07/24 06:38:24;;;;;;;11.38;7.18;;;;;;;37.50;25.72;94676.97;5071342;28;20210;-77
2022/07/24 06:40:51;;;;;;;11.50;7.22;;;;;;;38.30;24.64;94655.13;5058697;28;20206;-78
2022/07/24 06:43:17;;;;;;;9.63;6.78;;;;;;;37.39;25.30;94667.66;5062097;28;20249;-75
2022/07/24 06:45:47;;;;;;;12.48;6.55;;;;;;;36.65;27.17;94668.97;5071845;28;20195;-77
2022/07/24 06:48:15;;;;;;;9.38;6.80;;;;;;;37.76;24.94;94662.00;5056977;28;20208;-77
2022/07/24 06:50:43;;;;;;;12.15;7.05;;;;;;;38.05;25.01;94650.34;5063570;28;20215;-77
2022/07/24 06:53:09;;;;;;;11.73;6.80;;;;;;;38.02;25.54;94654.97;5064020;28;20203;-79
2022/07/24 06:55:36;;;;;;;14.73;7.53;;;;;;;35.36;28.92;94664.91;5051122;28;20223;-77
2022/07/24 06:58:03;;;;;;;11.95;6.75;;;;;;;36.14;27.78;94660.38;5051961;28;20594;-75
2022/07/24 07:00:30;;;;;;;16.42;7.22;;;;;;;36.19;27.18;94654.81;5062678;28;20337;-78
2022/07/24 07:02:57;;;;;;;12.80;6.38;;;;;;;33.84;28.67;94675.28;5064353;28;20753;-78
2022/07/24 07:05:25;;;;;;;12.85;6.57;;;;;;;34.90;26.90;94657.72;5060272;28;20195;-77
2022/07/24 07:07:52;;;;;;;11.27;7.35;;;;;;;35.59;26.49;94658.31;5057282;28;20204;-78
2022/07/24 07:10:19;;;;;;;9.05;6.32;;;;;;;37.15;24.56;94659.47;5061038;28;20238;-78
2022/07/24 07:12:46;;;;;;;8.93;6.70;;;;;;;37.74;23.39;94650.41;5066559;28;20700;-79
2022/07/24 07:15:13;;;;;;;8.07;6.43;;;;;;;38.42;23.10;94653.88;5060413;28;20273;-77
2022/07/24 07:17:46;;;;;;;8.32;6.35;;;;;;;38.80;22.14;94645.25;5064067;28;20215;-77
2022/07/24 07:20:13;;;;;;;13.68;6.88;;;;;;;38.25;22.74;94647.41;5061735;28;20195;-77
2022/07/24 07:22:42;;;;;;;9.82;6.43;;;;;;;38.87;22.52;94651.19;5057336;28;20306;-77
2022/07/24 07:25:10;;;;;;;10.13;6.75;;;;;;;38.91;22.31;94653.78;5070177;28;20210;-77
2022/07/24 07:27:39;;;;;;;9.07;5.72;;;;;;;38.82;22.52;94651.94;5052103;28;20730;-77
2022/07/24 07:30:07;;;;;;;10.60;6.68;;;;;;;38.34;23.72;94646.38;5063320;28;20282;-76
2022/07/24 07:32:34;;;;;;;8.50;6.68;;;;;;;37.88;24.10;94644.59;5057522;28;20203;-77
2022/07/24 07:35:01;;;;;;;11.40;6.68;;;;;;;37.49;24.12;94649.22;5057627;28;20204;-77
2022/07/24 07:37:28;;;;;;;12.73;7.20;;;;;;;37.23;24.39;94652.09;5070113;28;20272;-77
2022/07/24 07:39:57;;;;;;;11.65;6.90;;;;;;;36.20;25.44;94655.59;5057625;28;20892;-79
2022/07/24 07:42:24;;;;;;;11.98;7.10;;;;;;;35.87;27.09;94653.88;5050229;28;20265;-77
2022/07/24 07:44:51;;;;;;;12.95;7.60;;;;;;;35.22;26.77;94658.00;5050904;28;20724;-77
2022/07/24 07:47:18;;;;;;;12.52;7.07;;;;;;;35.58;26.42;94653.94;5070679;28;20214;-77
2022/07/24 07:49:45;;;;;;;10.50;6.40;;;;;;;35.64;27.06;94640.72;5069997;28;20211;-77
2022/07/24 07:52:12;;;;;;;9.93;7.13;;;;;;;35.85;27.28;94650.78;5057745;28;20195;-77
2022/07/24 07:54:39;;;;;;;13.52;7.00;;;;;;;35.23;26.67;94649.06;5055916;28;20212;-77
2022/07/24 07:57:07;;;;;;;10.90;7.28;;;;;;;35.30;26.89;94647.13;5057578;28;20238;-77
2022/07/24 07:59:34;;;;;;;13.38;7.43;;;;;;;35.29;27.96;94649.16;5056965;28;20200;-76
2022/07/24 08:02:01;;;;;;;9.98;7.25;;;;;;;35.60;27.18;94646.56;5062480;28;20208;-77
2022/07/24 08:04:30;;;;;;;11.45;6.68;;;;;;;36.26;25.39;94650.81;5063624;28;20267;-77
2022/07/24 08:06:57;;;;;;;9.65;6.82;;;;;;;35.89;25.95;94645.72;5058253;28;20252;-77
2022/07/24 08:09:24;;;;;;;12.77;7.60;;;;;;;36.35;26.84;94653.50;5055910;28;20204;-77
2022/07/24 08:11:51;;;;;;;12.68;6.47;;;;;;;34.63;28.66;94654.38;5061806;28;20245;-76
2022/07/24 08:14:19;;;;;;;10.35;6.90;;;;;;;34.85;27.98;94661.19;5063014;28;20210;-77
2022/07/24 08:16:46;;;;;;;9.73;7.10;;;;;;;35.66;26.87;94648.69;5058349;28;20632;-76
2022/07/24 08:19:13;;;;;;;9.20;6.90;;;;;;;35.95;27.19;94651.41;5056481;28;20259;-77
2022/07/24 08:21:40;;;;;;;11.45;6.90;;;;;;;36.44;26.25;94661.81;5064638;28;20203;-77
2022/07/24 08:24:08;;;;;;;12.38;7.40;;;;;;;36.39;25.38;94658.91;5066892;28;20206;-77
2022/07/24 08:26:35;;;;;;;9.70;7.00;;;;;;;37.31;24.82;94651.13;5063114;28;20241;-77
2022/07/24 08:29:01;;;;;;;12.77;7.07;;;;;;;38.09;24.23;94644.47;5060574;28;20230;-77
2022/07/24 08:31:30;;;;;;;10.63;6.88;;;;;;;38.02;24.49;94652.13;5064465;28;20769;-77
2022/07/24 08:33:57;;;;;;;10.65;6.82;;;;;;;37.29;26.26;94655.75;5067235;28;20207;-77
2022/07/24 08:36:24;;;;;;;12.23;6.80;;;;;;;37.33;27.02;94662.72;5063878;28;20231;-76
2022/07/24 08:38:51;;;;;;;12.15;7.07;;;;;;;36.39;26.38;94648.41;5060015;28;20248;-75
2022/07/24 08:41:19;;;;;;;11.63;7.15;;;;;;;36.14;27.18;94649.88;5063439;28;20481;-77
2022/07/24 08:43:48;;;;;;;12.00;7.65;;;;;;;36.09;27.47;94646.97;5062171;28;20191;-76
2022/07/24 08:46:16;;;;;;;11.65;7.88;;;;;;;35.53;27.93;94651.84;5074144;28;20192;-75
2022/07/24 08:48:46;;;;;;;13.00;7.32;;;;;;;35.01;28.74;94651.50;5060188;28;20293;-75
2022/07/24 08:51:15;;;;;;;9.00;6.95;;;;;;;35.34;29.21;94639.25;5061578;28;20219;-77
2022/07/24 08:53:43;;;;;;;13.68;8.00;;;;;;;35.23;28.32;94640.59;5066463;28;20607;-77
2022/07/24 08:56:10;;;;;;;12.98;7.28;;;;;;;35.49;29.28;94640.00;5065819;28;20651;-77
2022/07/24 08:58:38;;;;;;;12.20;7.57;;;;;;;35.31;29.89;94640.22;5053348;28;20551;-77
2022/07/24 09:01:06;;;;;;;11.02;7.32;;;;;;;35.55;28.91;94640.84;5066787;28;20685;-77
2022/07/24 09:03:40;;;;;;;11.35;7.70;;;;;;;35.35;29.28;94640.81;5059894;28;20202;-76
2022/07/24 09:06:09;;;;;;;12.82;7.55;;;;;;;35.17;29.64;94653.81;5059711;28;20199;-76
2022/07/24 09:08:36;;;;;;;11.00;7.47;;;;;;;35.55;29.63;94643.66;5064768;28;20536;-77
2022/07/24 09:11:05;;;;;;;12.13;7.82;;;;;;;34.32;31.50;94640.72;5055154;28;20821;-77
2022/07/24 09:16:22;;;;;;;15.85;7.65;;;;;;;35.19;29.98;94634.38;5065431;28;20230;-76
2022/07/24 09:18:50;;;;;;;17.40;7.80;;;;;;;35.83;29.15;94630.75;5065676;28;20202;-76
2022/07/24 09:21:19;;;;;;;12.38;7.95;;;;;;;36.23;29.18;94629.22;5058724;28;20509;-75
2022/07/24 09:23:47;;;;;;;12.05;7.35;;;;;;;36.34;27.28;94635.03;5059964;28;20286;-77
2022/07/24 09:26:13;;;;;;;12.45;7.30;;;;;;;36.30;28.92;94635.22;5065854;28;20239;-77
2022/07/24 09:28:51;;;;;;;11.77;7.25;;;;;;;36.45;29.01;94635.13;5065861;28;21004;-78
2022/07/24 09:31:17;;;;;;;14.73;7.15;;;;;;;36.65;27.98;94626.59;5061279;28;20295;-77
2022/07/24 09:33:44;;;;;;;13.85;8.23;;;;;;;36.65;28.61;94637.13;5071216;28;20214;-76
2022/07/24 09:39:01;;;;;;;15.27;7.22;;;;;;;36.79;28.31;94629.84;5050288;28;20208;-77
2022/07/24 09:41:29;;;;;;;12.05;7.22;;;;;;;36.60;27.38;94629.38;5064635;28;20194;-76
2022/07/24 09:44:00;;;;;;;14.00;7.00;;;;;;;36.31;27.20;94630.34;5058470;28;20215;-76
2022/07/24 09:46:27;;;;;;;13.93;7.63;;;;;;;36.47;26.72;94626.19;5058931;28;20269;-76
2022/07/24 09:48:56;;;;;;;16.02;6.93;;;;;;;36.95;26.76;94617.94;5059559;28;20250;-77
2022/07/24 09:51:26;;;;;;;16.10;7.22;;;;;;;36.91;26.42;94608.91;5058547;28;20208;-78
2022/07/24 09:53:56;;;;;;;8.27;6.68;;;;;;;36.60;26.30;94618.88;5064359;28;20203;-77
2022/07/24 09:56:24;;;;;;;11.23;6.30;;;;;;;36.73;26.92;94609.25;5059553;28;20232;-77
2022/07/24 09:58:53;;;;;;;10.55;6.10;;;;;;;35.96;26.30;94605.78;5063692;28;20212;-74
2022/07/24 10:01:22;;;;;;;10.35;7.03;;;;;;;36.70;25.64;94604.56;5054209;28;20207;-76
2022/07/24 10:03:50;;;;;;;17.40;7.18;;;;;;;36.28;26.45;94617.22;5062810;28;20200;-78
2022/07/24 10:06:21;;;;;;;11.40;6.70;;;;;;;36.31;25.91;94604.97;5067255;28;20256;-76
2022/07/24 10:08:51;;;;;;;9.63;6.38;;;;;;;36.22;26.06;94605.09;5071555;28;20282;-75
2022/07/24 10:11:19;;;;;;;10.30;5.97;;;;;;;36.40;24.38;94606.84;5058645;28;20207;-75
2022/07/24 10:13:46;;;;;;;10.93;6.10;;;;;;;36.67;24.54;94601.47;5060411;28;20199;-76
2022/07/24 10:16:30;;;;;;;12.30;5.78;;;;;;;35.73;24.16;94601.13;5064940;28;20638;-77
2022/07/24 10:18:59;;;;;;;8.95;5.63;;;;;;;35.53;25.41;94603.94;5064946;28;20195;-76
2022/07/24 10:21:27;;;;;;;9.88;5.95;;;;;;;35.70;25.43;94599.28;5059481;28;20210;-77
2022/07/24 10:24:21;;;;;;;8.95;6.50;;;;;;;36.65;24.08;94592.72;5058023;28;20619;-75
2022/07/24 10:26:50;;;;;;;9.52;5.70;;;;;;;36.31;24.97;94585.22;5059277;28;20326;-76
2022/07/24 10:29:18;;;;;;;8.25;5.80;;;;;;;36.51;24.63;94592.84;5070545;28;20669;-76
2022/07/24 10:31:47;;;;;;;8.63;5.22;;;;;;;37.24;24.74;94595.06;5058798;28;20207;-76
2022/07/24 10:34:35;;;;;;;8.52;5.32;;;;;;;37.73;22.87;94587.44;5064518;28;20265;-76
2022/07/24 10:37:10;;;;;;;8.65;6.18;;;;;;;37.97;23.41;94585.00;5053959;28;20755;-75
2022/07/24 10:39:48;;;;;;;9.25;6.18;;;;;;;37.89;23.14;94583.91;5061350;28;20203;-76
2022/07/24 10:42:15;;;;;;;10.13;6.40;;;;;;;37.99;22.87;94581.66;5069498;28;20191;-78
2022/07/24 10:44:44;;;;;;;9.30;5.90;;;;;;;37.76;22.75;94575.09;5050772;28;20227;-79
2022/07/24 10:47:13;;;;;;;13.20;6.43;;;;;;;37.35;22.91;94577.41;5057153;28;20210;-79
2022/07/24 10:49:43;;;;;;;8.02;6.20;;;;;;;36.61;23.93;94575.25;5057506;28;20257;-78
2022/07/24 10:52:11;;;;;;;10.57;6.30;;;;;;;37.15;24.59;94577.53;5058144;28;20198;-77
2022/07/24 10:54:40;;;;;;;9.80;6.10;;;;;;;37.66;23.83;94570.94;5057237;28;20196;-78
2022/07/24 10:57:07;;;;;;;10.43;6.80;;;;;;;37.96;23.31;94565.69;5063254;28;20277;-79
2022/07/24 10:59:36;;;;;;;10.15;6.45;;;;;;;38.12;23.62;94561.41;5052320;28;20204;-79
2022/07/24 11:02:26;;;;;;;8.55;6.32;;;;;;;37.41;23.26;94563.31;5061636;28;20199;-78
2022/07/24 11:05:24;;;;;;;8.52;6.25;;;;;;;36.89;23.34;94567.06;5063662;28;20752;-76
2022/07/24 11:08:34;;;;;;;12.05;6.00;;;;;;;37.69;23.42;94553.75;5064181;28;20389;-77
2022/07/24 11:11:11;;;;;;;8.75;6.03;;;;;;;37.94;22.59;94552.03;5064254;28;20202;-80
2022/07/24 11:13:50;;;;;;;6.88;5.68;;;;;;;38.43;22.10;94541.38;5060811;28;20206;-80
2022/07/24 11:16:22;;;;;;;10.00;6.03;;;;;;;38.14;22.30;94547.50;5057446;28;20207;-77
2022/07/24 11:19:31;;;;;;;8.98;6.53;;;;;;;37.76;21.98;94537.56;5057901;28;20214;-76
2022/07/24 11:22:13;;;;;;;6.40;5.80;;;;;;;37.72;23.03;94535.00;5062426;28;20640;-78
2022/07/24 11:25:06;;;;;;;8.50;6.43;;;;;;;37.59;23.09;94537.44;5058509;28;20210;-77
2022/07/24 11:27:44;;;;;;;6.95;6.00;;;;;;;37.25;22.98;94537.28;5066190;28;20227;-79
2022/07/24 11:30:12;;;;;;;7.78;6.07;;;;;;;37.57;22.69;94525.91;5050422;28;20192;-78
2022/07/24 11:32:40;;;;;;;8.63;6.35;;;;;;;37.89;23.08;94532.22;5056824;28;20198;-79
2022/07/24 11:35:08;;;;;;;9.30;6.40;;;;;;;37.81;23.07;94528.34;5057029;28;20311;-80
2022/07/24 11:37:35;;;;;;;8.32;5.53;;;;;;;37.63;22.95;94538.78;5070500;28;20222;-76
2022/07/24 11:40:05;;;;;;;7.85;6.43;;;;;;;37.49;23.13;94522.75;5056565;28;20219;-80